sensor_id;sensor_type;location;lat;lon;timestamp;P1;P2;P0
42002;PMS7003;27693;50.506;30.832;2023-04-22T00:00:06;21.30;17.10;14.00
42002;PMS7003;27693;50.506;30.832;2023-04-22T00:01:10;22.10;19.00;13.90
42002;PMS7003;27693;50.506;30.832;2023-04-22T00:02:13;21.70;19.20;13.20
42002;PMS7003;27693;50.506;30.832;2023-04-22T00:03:18;24.50;18.60;14.40
42002;PMS7003;27693;50.506;30.832;2023-04-22T00:04:20;18.82;17.27;13.73
42002;PMS7003;27693;50.506;30.832;2023-04-22T00:05:24;24.30;18.20;12.80
42002;PMS7003;27693;50.506;30.832;2023-04-22T00:06:26;18.40;15.80;13.30
42002;PMS7003;27693;50.506;30.832;2023-04-22T00:07:29;22.90;18.80;15.10
42002;PMS7003;27693;50.506;30.832;2023-04-22T00:08:31;22.30;20.80;14.80
42002;PMS7003;27693;50.506;30.832;2023-04-22T00:09:33;19.20;16.40;12.60
42002;PMS7003;27693;50.506;30.832;2023-04-22T00:10:36;24.90;20.60;15.20
42002;PMS7003;27693;50.506;30.832;2023-04-22T00:11:38;24.10;18.60;14.70
42002;PMS7003;27693;50.506;30.832;2023-04-22T00:12:40;17.00;15.30;11.40
42002;PMS7003;27693;50.506;30.832;2023-04-22T00:13:42;19.40;17.50;13.90
42002;PMS7003;27693;50.506;30.832;2023-04-22T00:14:46;24.60;18.70;12.50
42002;PMS7003;27693;50.506;30.832;2023-04-22T00:15:50;18.10;17.60;14.60
42002;PMS7003;27693;50.506;30.832;2023-04-22T00:16:53;21.64;19.45;14.45
42002;PMS7003;27693;50.506;30.832;2023-04-22T00:17:56;20.50;16.40;13.80
42002;PMS7003;27693;50.506;30.832;2023-04-22T00:18:59;20.30;16.80;12.90
42002;PMS7003;27693;50.506;30.832;2023-04-22T00:20:01;22.30;19.10;15.10
42002;PMS7003;27693;50.506;30.832;2023-04-22T00:21:05;22.10;19.40;14.60
42002;PMS7003;27693;50.506;30.832;2023-04-22T00:22:08;22.40;17.10;12.00
42002;PMS7003;27693;50.506;30.832;2023-04-22T00:23:12;23.10;19.80;14.80
42002;PMS7003;27693;50.506;30.832;2023-04-22T00:24:15;18.80;17.40;14.20
42002;PMS7003;27693;50.506;30.832;2023-04-22T00:25:18;16.40;13.90;10.40
42002;PMS7003;27693;50.506;30.832;2023-04-22T00:26:20;21.40;20.60;15.70
42002;PMS7003;27693;50.506;30.832;2023-04-22T00:27:23;19.30;18.30;14.30
42002;PMS7003;27693;50.506;30.832;2023-04-22T00:28:26;21.20;19.10;14.60
42002;PMS7003;27693;50.506;30.832;2023-04-22T00:29:29;19.40;17.50;13.20
42002;PMS7003;27693;50.506;30.832;2023-04-22T00:30:31;19.40;16.80;13.40
42002;PMS7003;27693;50.506;30.832;2023-04-22T00:31:34;22.60;21.10;16.20
42002;PMS7003;27693;50.506;30.832;2023-04-22T00:32:37;21.90;19.90;16.20
42002;PMS7003;27693;50.506;30.832;2023-04-22T00:33:40;21.00;16.40;10.30
42002;PMS7003;27693;50.506;30.832;2023-04-22T00:34:43;26.80;19.90;15.00
42002;PMS7003;27693;50.506;30.832;2023-04-22T00:35:45;23.30;20.30;14.10
42002;PMS7003;27693;50.506;30.832;2023-04-22T00:36:47;24.60;22.50;18.10
42002;PMS7003;27693;50.506;30.832;2023-04-22T00:37:51;25.60;22.80;17.20
42002;PMS7003;27693;50.506;30.832;2023-04-22T00:38:54;41.20;33.10;23.40
42002;PMS7003;27693;50.506;30.832;2023-04-22T00:39:57;40.30;33.60;22.80
42002;PMS7003;27693;50.506;30.832;2023-04-22T00:41:00;29.40;24.20;17.60
42002;PMS7003;27693;50.506;30.832;2023-04-22T00:42:07;33.20;29.60;21.50
42002;PMS7003;27693;50.506;30.832;2023-04-22T00:43:10;28.60;25.50;20.60
42002;PMS7003;27693;50.506;30.832;2023-04-22T00:44:14;30.80;28.90;20.80
42002;PMS7003;27693;50.506;30.832;2023-04-22T00:45:16;33.00;29.50;21.20
42002;PMS7003;27693;50.506;30.832;2023-04-22T00:46:20;29.00;25.90;19.20
42002;PMS7003;27693;50.506;30.832;2023-04-22T00:47:22;31.80;26.70;18.60
42002;PMS7003;27693;50.506;30.832;2023-04-22T00:48:27;31.70;27.00;20.10
42002;PMS7003;27693;50.506;30.832;2023-04-22T00:49:31;28.30;24.40;19.00
42002;PMS7003;27693;50.506;30.832;2023-04-22T00:50:33;26.40;21.70;15.80
42002;PMS7003;27693;50.506;30.832;2023-04-22T00:51:35;25.40;20.50;15.30
42002;PMS7003;27693;50.506;30.832;2023-04-22T00:52:38;24.90;23.20;16.30
42002;PMS7003;27693;50.506;30.832;2023-04-22T00:53:40;18.50;14.70;11.80
42002;PMS7003;27693;50.506;30.832;2023-04-22T00:54:43;20.10;19.10;15.60
42002;PMS7003;27693;50.506;30.832;2023-04-22T00:55:46;24.60;21.60;16.30
42002;PMS7003;27693;50.506;30.832;2023-04-22T00:56:49;17.82;14.45;12.36
42002;PMS7003;27693;50.506;30.832;2023-04-22T00:57:52;21.36;18.82;14.91
42002;PMS7003;27693;50.506;30.832;2023-04-22T00:58:56;21.50;17.90;13.70
42002;PMS7003;27693;50.506;30.832;2023-04-22T00:59:59;22.80;17.70;14.30
42002;PMS7003;27693;50.506;30.832;2023-04-22T01:01:02;24.00;19.45;14.36
42002;PMS7003;27693;50.506;30.832;2023-04-22T01:02:05;15.70;15.10;12.60
42002;PMS7003;27693;50.506;30.832;2023-04-22T01:03:08;19.30;17.50;13.70
42002;PMS7003;27693;50.506;30.832;2023-04-22T01:04:11;22.27;19.64;15.36
42002;PMS7003;27693;50.506;30.832;2023-04-22T01:05:15;21.30;17.00;13.60
42002;PMS7003;27693;50.506;30.832;2023-04-22T01:06:18;21.30;17.20;13.70
42002;PMS7003;27693;50.506;30.832;2023-04-22T01:07:23;19.60;18.20;13.20
42002;PMS7003;27693;50.506;30.832;2023-04-22T01:08:26;13.73;10.00;7.27
42002;PMS7003;27693;50.506;30.832;2023-04-22T01:09:33;19.80;17.10;13.20
42002;PMS7003;27693;50.506;30.832;2023-04-22T01:10:37;19.40;14.80;11.30
42002;PMS7003;27693;50.506;30.832;2023-04-22T01:11:40;16.70;15.10;13.00
42002;PMS7003;27693;50.506;30.832;2023-04-22T01:12:44;19.30;17.70;14.00
42002;PMS7003;27693;50.506;30.832;2023-04-22T01:13:47;22.10;18.30;14.20
42002;PMS7003;27693;50.506;30.832;2023-04-22T01:14:49;16.70;14.10;10.40
42002;PMS7003;27693;50.506;30.832;2023-04-22T01:15:52;20.10;17.30;13.90
42002;PMS7003;27693;50.506;30.832;2023-04-22T01:16:55;19.70;17.10;14.00
42002;PMS7003;27693;50.506;30.832;2023-04-22T01:17:59;21.20;15.90;13.00
42002;PMS7003;27693;50.506;30.832;2023-04-22T01:19:04;17.10;15.70;12.70
42002;PMS7003;27693;50.506;30.832;2023-04-22T01:20:08;20.10;18.00;14.80
42002;PMS7003;27693;50.506;30.832;2023-04-22T01:21:11;20.80;20.50;15.90
42002;PMS7003;27693;50.506;30.832;2023-04-22T01:22:13;22.60;18.40;14.50
42002;PMS7003;27693;50.506;30.832;2023-04-22T01:23:20;19.50;17.10;13.90
42002;PMS7003;27693;50.506;30.832;2023-04-22T01:24:23;19.00;16.70;13.20
42002;PMS7003;27693;50.506;30.832;2023-04-22T01:25:27;21.90;19.00;15.60
42002;PMS7003;27693;50.506;30.832;2023-04-22T01:26:29;20.40;18.30;13.40
42002;PMS7003;27693;50.506;30.832;2023-04-22T01:27:32;22.60;19.40;16.40
42002;PMS7003;27693;50.506;30.832;2023-04-22T01:28:37;15.20;12.60;11.00
42002;PMS7003;27693;50.506;30.832;2023-04-22T01:29:40;13.80;11.90;8.10
42002;PMS7003;27693;50.506;30.832;2023-04-22T01:30:43;21.50;17.90;14.80
42002;PMS7003;27693;50.506;30.832;2023-04-22T01:31:46;21.09;18.18;14.64
42002;PMS7003;27693;50.506;30.832;2023-04-22T01:32:49;20.55;18.82;15.55
42002;PMS7003;27693;50.506;30.832;2023-04-22T01:33:54;16.30;15.80;14.90
42002;PMS7003;27693;50.506;30.832;2023-04-22T01:34:57;24.64;18.64;15.18
42002;PMS7003;27693;50.506;30.832;2023-04-22T01:36:00;20.90;19.30;15.40
42002;PMS7003;27693;50.506;30.832;2023-04-22T01:37:02;17.90;17.00;13.70
42002;PMS7003;27693;50.506;30.832;2023-04-22T01:38:05;19.40;16.50;13.40
42002;PMS7003;27693;50.506;30.832;2023-04-22T01:39:10;19.40;17.50;14.20
42002;PMS7003;27693;50.506;30.832;2023-04-22T01:40:13;22.90;19.90;15.60
42002;PMS7003;27693;50.506;30.832;2023-04-22T01:41:19;20.10;16.60;13.20
42002;PMS7003;27693;50.506;30.832;2023-04-22T01:42:21;19.90;18.30;14.50
42002;PMS7003;27693;50.506;30.832;2023-04-22T01:43:24;22.27;18.09;14.09
42002;PMS7003;27693;50.506;30.832;2023-04-22T01:44:27;21.82;18.82;14.55
42002;PMS7003;27693;50.506;30.832;2023-04-22T01:45:30;26.60;18.30;14.70
42002;PMS7003;27693;50.506;30.832;2023-04-22T01:46:32;20.80;18.00;14.10
42002;PMS7003;27693;50.506;30.832;2023-04-22T01:47:37;23.80;17.80;13.70
42002;PMS7003;27693;50.506;30.832;2023-04-22T01:48:40;21.60;19.50;14.90
42002;PMS7003;27693;50.506;30.832;2023-04-22T01:49:42;18.70;16.80;13.60
42002;PMS7003;27693;50.506;30.832;2023-04-22T01:50:46;20.00;17.90;13.80
42002;PMS7003;27693;50.506;30.832;2023-04-22T01:51:49;20.91;17.18;13.55
42002;PMS7003;27693;50.506;30.832;2023-04-22T01:52:52;24.20;19.20;15.00
42002;PMS7003;27693;50.506;30.832;2023-04-22T01:53:56;20.10;17.80;12.70
42002;PMS7003;27693;50.506;30.832;2023-04-22T01:54:58;20.60;16.20;12.40
42002;PMS7003;27693;50.506;30.832;2023-04-22T01:56:03;22.70;18.10;14.90
42002;PMS7003;27693;50.506;30.832;2023-04-22T01:57:08;22.60;18.60;14.50
42002;PMS7003;27693;50.506;30.832;2023-04-22T01:58:14;18.30;16.40;14.00
42002;PMS7003;27693;50.506;30.832;2023-04-22T01:59:18;23.40;19.20;14.10
42002;PMS7003;27693;50.506;30.832;2023-04-22T02:00:22;17.40;17.10;12.60
42002;PMS7003;27693;50.506;30.832;2023-04-22T02:01:25;21.50;19.40;15.90
42002;PMS7003;27693;50.506;30.832;2023-04-22T02:02:27;20.90;18.60;14.60
42002;PMS7003;27693;50.506;30.832;2023-04-22T02:03:31;21.60;18.00;14.80
42002;PMS7003;27693;50.506;30.832;2023-04-22T02:04:34;20.00;18.10;14.70
42002;PMS7003;27693;50.506;30.832;2023-04-22T02:05:38;20.20;17.50;13.20
42002;PMS7003;27693;50.506;30.832;2023-04-22T02:06:41;20.30;18.40;14.60
42002;PMS7003;27693;50.506;30.832;2023-04-22T02:07:44;21.00;18.00;13.90
42002;PMS7003;27693;50.506;30.832;2023-04-22T02:08:47;20.00;18.30;15.00
42002;PMS7003;27693;50.506;30.832;2023-04-22T02:09:49;19.50;17.70;15.00
42002;PMS7003;27693;50.506;30.832;2023-04-22T02:10:52;25.10;21.20;16.30
42002;PMS7003;27693;50.506;30.832;2023-04-22T02:11:54;22.50;20.00;14.50
42002;PMS7003;27693;50.506;30.832;2023-04-22T02:12:57;24.60;17.80;14.40
42002;PMS7003;27693;50.506;30.832;2023-04-22T02:14:00;21.00;19.40;14.00
42002;PMS7003;27693;50.506;30.832;2023-04-22T02:15:02;21.30;18.70;14.60
42002;PMS7003;27693;50.506;30.832;2023-04-22T02:16:06;23.20;19.20;15.60
42002;PMS7003;27693;50.506;30.832;2023-04-22T02:17:10;21.10;17.70;14.40
42002;PMS7003;27693;50.506;30.832;2023-04-22T02:18:13;24.70;18.40;14.00
42002;PMS7003;27693;50.506;30.832;2023-04-22T02:19:19;23.10;20.60;16.60
42002;PMS7003;27693;50.506;30.832;2023-04-22T02:20:21;26.90;21.90;16.10
42002;PMS7003;27693;50.506;30.832;2023-04-22T02:21:27;21.90;19.10;15.90
42002;PMS7003;27693;50.506;30.832;2023-04-22T02:22:31;21.40;19.20;14.70
42002;PMS7003;27693;50.506;30.832;2023-04-22T02:23:33;26.40;23.20;16.90
42002;PMS7003;27693;50.506;30.832;2023-04-22T02:24:37;24.10;21.20;15.90
42002;PMS7003;27693;50.506;30.832;2023-04-22T02:25:39;27.40;22.90;16.10
42002;PMS7003;27693;50.506;30.832;2023-04-22T02:26:42;28.55;22.36;16.18
42002;PMS7003;27693;50.506;30.832;2023-04-22T02:27:44;25.40;20.50;15.90
42002;PMS7003;27693;50.506;30.832;2023-04-22T02:28:47;29.00;24.90;18.20
42002;PMS7003;27693;50.506;30.832;2023-04-22T02:29:49;23.82;20.00;15.73
42002;PMS7003;27693;50.506;30.832;2023-04-22T02:30:52;22.40;18.90;15.40
42002;PMS7003;27693;50.506;30.832;2023-04-22T02:31:55;28.50;21.50;16.60
42002;PMS7003;27693;50.506;30.832;2023-04-22T02:32:57;27.20;21.40;16.20
42002;PMS7003;27693;50.506;30.832;2023-04-22T02:34:01;24.40;20.50;16.00
42002;PMS7003;27693;50.506;30.832;2023-04-22T02:35:03;25.10;21.10;15.50
42002;PMS7003;27693;50.506;30.832;2023-04-22T02:36:07;22.80;19.50;15.40
42002;PMS7003;27693;50.506;30.832;2023-04-22T02:37:09;26.40;21.20;15.90
42002;PMS7003;27693;50.506;30.832;2023-04-22T02:38:12;23.64;20.18;16.27
42002;PMS7003;27693;50.506;30.832;2023-04-22T02:39:16;25.30;21.20;15.30
42002;PMS7003;27693;50.506;30.832;2023-04-22T02:40:19;22.73;20.36;15.82
42002;PMS7003;27693;50.506;30.832;2023-04-22T02:41:22;25.00;20.00;13.80
42002;PMS7003;27693;50.506;30.832;2023-04-22T02:42:24;22.36;19.82;14.91
42002;PMS7003;27693;50.506;30.832;2023-04-22T02:43:27;20.40;14.80;11.60
42002;PMS7003;27693;50.506;30.832;2023-04-22T02:44:29;23.90;19.30;14.80
42002;PMS7003;27693;50.506;30.832;2023-04-22T02:45:32;21.60;19.90;14.40
42002;PMS7003;27693;50.506;30.832;2023-04-22T02:46:34;21.50;17.80;14.30
42002;PMS7003;27693;50.506;30.832;2023-04-22T02:47:41;22.20;19.30;14.60
42002;PMS7003;27693;50.506;30.832;2023-04-22T02:48:43;22.50;19.30;15.10
42002;PMS7003;27693;50.506;30.832;2023-04-22T02:49:47;22.90;19.00;14.20
42002;PMS7003;27693;50.506;30.832;2023-04-22T02:50:50;19.73;17.64;13.73
42002;PMS7003;27693;50.506;30.832;2023-04-22T02:51:52;29.30;23.60;17.40
42002;PMS7003;27693;50.506;30.832;2023-04-22T02:52:55;28.70;24.70;18.60
42002;PMS7003;27693;50.506;30.832;2023-04-22T02:53:57;27.60;23.20;15.50
42002;PMS7003;27693;50.506;30.832;2023-04-22T02:55:00;30.73;25.27;18.55
42002;PMS7003;27693;50.506;30.832;2023-04-22T02:56:03;31.40;25.00;19.10
42002;PMS7003;27693;50.506;30.832;2023-04-22T02:57:06;30.10;27.80;19.20
42002;PMS7003;27693;50.506;30.832;2023-04-22T02:58:10;22.40;19.90;16.20
42002;PMS7003;27693;50.506;30.832;2023-04-22T02:59:13;25.20;20.80;16.00
42002;PMS7003;27693;50.506;30.832;2023-04-22T03:00:15;20.40;18.20;15.20
42002;PMS7003;27693;50.506;30.832;2023-04-22T03:01:18;20.60;19.60;14.20
42002;PMS7003;27693;50.506;30.832;2023-04-22T03:02:21;20.64;16.36;14.45
42002;PMS7003;27693;50.506;30.832;2023-04-22T03:03:29;27.80;22.90;17.70
42002;PMS7003;27693;50.506;30.832;2023-04-22T03:04:32;20.70;16.60;12.80
42002;PMS7003;27693;50.506;30.832;2023-04-22T03:05:35;27.50;21.50;15.70
42002;PMS7003;27693;50.506;30.832;2023-04-22T03:06:37;23.30;21.20;15.90
42002;PMS7003;27693;50.506;30.832;2023-04-22T03:07:40;21.90;17.60;13.60
42002;PMS7003;27693;50.506;30.832;2023-04-22T03:08:42;19.60;16.80;12.60
42002;PMS7003;27693;50.506;30.832;2023-04-22T03:09:45;23.70;20.50;16.50
42002;PMS7003;27693;50.506;30.832;2023-04-22T03:10:47;23.90;20.50;14.50
42002;PMS7003;27693;50.506;30.832;2023-04-22T03:11:50;24.20;20.30;16.60
42002;PMS7003;27693;50.506;30.832;2023-04-22T03:12:52;19.90;19.60;14.10
42002;PMS7003;27693;50.506;30.832;2023-04-22T03:13:55;24.18;19.64;14.91
42002;PMS7003;27693;50.506;30.832;2023-04-22T03:14:57;21.40;19.10;13.60
42002;PMS7003;27693;50.506;30.832;2023-04-22T03:16:02;21.60;20.20;14.60
42002;PMS7003;27693;50.506;30.832;2023-04-22T03:17:06;24.70;18.50;15.30
42002;PMS7003;27693;50.506;30.832;2023-04-22T03:18:09;22.40;18.30;14.50
42002;PMS7003;27693;50.506;30.832;2023-04-22T03:19:12;17.45;16.00;12.73
42002;PMS7003;27693;50.506;30.832;2023-04-22T03:20:15;19.18;18.73;14.09
42002;PMS7003;27693;50.506;30.832;2023-04-22T03:21:17;19.80;18.30;14.60
42002;PMS7003;27693;50.506;30.832;2023-04-22T03:22:21;16.90;15.50;12.40
42002;PMS7003;27693;50.506;30.832;2023-04-22T03:23:24;18.70;18.60;15.30
42002;PMS7003;27693;50.506;30.832;2023-04-22T03:24:27;21.64;18.27;13.82
42002;PMS7003;27693;50.506;30.832;2023-04-22T03:25:29;19.30;17.70;13.70
42002;PMS7003;27693;50.506;30.832;2023-04-22T03:26:32;20.18;19.18;14.91
42002;PMS7003;27693;50.506;30.832;2023-04-22T03:27:34;24.70;21.10;16.00
42002;PMS7003;27693;50.506;30.832;2023-04-22T03:28:37;24.10;19.80;15.70
42002;PMS7003;27693;50.506;30.832;2023-04-22T03:29:40;23.00;19.70;16.60
42002;PMS7003;27693;50.506;30.832;2023-04-22T03:30:44;20.40;18.60;15.20
42002;PMS7003;27693;50.506;30.832;2023-04-22T03:31:46;22.90;19.80;15.00
42002;PMS7003;27693;50.506;30.832;2023-04-22T03:32:49;22.80;18.40;14.80
42002;PMS7003;27693;50.506;30.832;2023-04-22T03:33:55;21.60;20.30;15.00
42002;PMS7003;27693;50.506;30.832;2023-04-22T03:34:59;21.70;19.50;15.90
42002;PMS7003;27693;50.506;30.832;2023-04-22T03:36:04;24.70;20.70;15.70
42002;PMS7003;27693;50.506;30.832;2023-04-22T03:37:07;29.00;22.30;16.70
42002;PMS7003;27693;50.506;30.832;2023-04-22T03:38:10;28.00;19.90;16.00
42002;PMS7003;27693;50.506;30.832;2023-04-22T03:39:13;27.10;20.90;16.20
42002;PMS7003;27693;50.506;30.832;2023-04-22T03:40:18;22.10;18.60;15.80
42002;PMS7003;27693;50.506;30.832;2023-04-22T03:41:21;26.30;22.50;17.30
42002;PMS7003;27693;50.506;30.832;2023-04-22T03:42:27;24.60;21.20;15.60
42002;PMS7003;27693;50.506;30.832;2023-04-22T03:43:31;21.50;20.00;16.20
42002;PMS7003;27693;50.506;30.832;2023-04-22T03:44:38;27.70;22.40;16.90
42002;PMS7003;27693;50.506;30.832;2023-04-22T03:45:41;25.10;20.50;16.20
42002;PMS7003;27693;50.506;30.832;2023-04-22T03:46:45;25.90;22.10;15.90
42002;PMS7003;27693;50.506;30.832;2023-04-22T03:47:50;25.60;22.30;16.00
42002;PMS7003;27693;50.506;30.832;2023-04-22T03:48:54;28.00;23.90;17.80
42002;PMS7003;27693;50.506;30.832;2023-04-22T03:49:58;24.30;22.00;16.10
42002;PMS7003;27693;50.506;30.832;2023-04-22T03:51:01;22.10;19.20;14.30
42002;PMS7003;27693;50.506;30.832;2023-04-22T03:52:06;19.80;19.70;14.40
42002;PMS7003;27693;50.506;30.832;2023-04-22T03:53:10;22.80;20.50;16.30
42002;PMS7003;27693;50.506;30.832;2023-04-22T03:54:12;22.80;20.60;14.70
42002;PMS7003;27693;50.506;30.832;2023-04-22T03:55:17;26.40;23.80;19.00
42002;PMS7003;27693;50.506;30.832;2023-04-22T03:56:20;28.64;23.09;17.82
42002;PMS7003;27693;50.506;30.832;2023-04-22T03:57:26;26.40;22.00;16.20
42002;PMS7003;27693;50.506;30.832;2023-04-22T03:58:29;25.00;22.20;17.30
42002;PMS7003;27693;50.506;30.832;2023-04-22T03:59:33;30.50;21.70;16.40
42002;PMS7003;27693;50.506;30.832;2023-04-22T04:00:36;30.50;26.40;18.40
42002;PMS7003;27693;50.506;30.832;2023-04-22T04:01:40;30.00;23.70;18.50
42002;PMS7003;27693;50.506;30.832;2023-04-22T04:02:43;24.90;22.90;18.10
42002;PMS7003;27693;50.506;30.832;2023-04-22T04:03:49;24.60;23.90;17.90
42002;PMS7003;27693;50.506;30.832;2023-04-22T04:04:52;25.10;20.30;14.60
42002;PMS7003;27693;50.506;30.832;2023-04-22T04:05:55;24.00;21.60;16.50
42002;PMS7003;27693;50.506;30.832;2023-04-22T04:06:58;24.30;21.50;16.50
42002;PMS7003;27693;50.506;30.832;2023-04-22T04:08:01;27.90;24.80;17.00
42002;PMS7003;27693;50.506;30.832;2023-04-22T04:09:03;25.73;23.27;16.27
42002;PMS7003;27693;50.506;30.832;2023-04-22T04:10:07;25.20;22.10;16.20
42002;PMS7003;27693;50.506;30.832;2023-04-22T04:11:13;31.00;25.50;17.50
42002;PMS7003;27693;50.506;30.832;2023-04-22T04:12:16;29.18;23.09;18.27
42002;PMS7003;27693;50.506;30.832;2023-04-22T04:13:19;21.73;18.64;12.36
42002;PMS7003;27693;50.506;30.832;2023-04-22T04:14:23;26.70;21.00;14.60
42002;PMS7003;27693;50.506;30.832;2023-04-22T04:15:26;31.20;24.50;18.80
42002;PMS7003;27693;50.506;30.832;2023-04-22T04:16:29;28.00;22.55;17.45
42002;PMS7003;27693;50.506;30.832;2023-04-22T04:17:34;26.70;24.60;18.00
42002;PMS7003;27693;50.506;30.832;2023-04-22T04:18:37;26.70;25.00;18.90
42002;PMS7003;27693;50.506;30.832;2023-04-22T04:19:40;27.60;20.80;15.40
42002;PMS7003;27693;50.506;30.832;2023-04-22T04:20:43;27.00;22.91;15.09
42002;PMS7003;27693;50.506;30.832;2023-04-22T04:21:45;32.70;26.70;19.50
42002;PMS7003;27693;50.506;30.832;2023-04-22T04:22:47;28.30;25.20;18.90
42002;PMS7003;27693;50.506;30.832;2023-04-22T04:23:50;30.60;26.20;18.20
42002;PMS7003;27693;50.506;30.832;2023-04-22T04:24:55;28.00;27.30;21.00
42002;PMS7003;27693;50.506;30.832;2023-04-22T04:25:59;28.40;26.10;17.60
42002;PMS7003;27693;50.506;30.832;2023-04-22T04:27:07;30.70;25.00;19.00
42002;PMS7003;27693;50.506;30.832;2023-04-22T04:28:12;27.00;22.40;14.60
42002;PMS7003;27693;50.506;30.832;2023-04-22T04:29:14;31.60;25.40;18.60
42002;PMS7003;27693;50.506;30.832;2023-04-22T04:30:19;30.20;27.50;21.00
42002;PMS7003;27693;50.506;30.832;2023-04-22T04:31:24;25.40;20.60;13.90
42002;PMS7003;27693;50.506;30.832;2023-04-22T04:32:26;32.20;24.80;18.20
42002;PMS7003;27693;50.506;30.832;2023-04-22T04:33:30;32.30;26.30;19.20
42002;PMS7003;27693;50.506;30.832;2023-04-22T04:34:33;30.40;26.20;20.20
42002;PMS7003;27693;50.506;30.832;2023-04-22T04:35:36;34.40;28.70;20.20
42002;PMS7003;27693;50.506;30.832;2023-04-22T04:36:40;33.80;26.50;20.10
42002;PMS7003;27693;50.506;30.832;2023-04-22T04:37:45;30.20;24.50;17.60
42002;PMS7003;27693;50.506;30.832;2023-04-22T04:38:48;32.10;23.90;17.30
42002;PMS7003;27693;50.506;30.832;2023-04-22T04:39:54;29.90;24.70;17.20
42002;PMS7003;27693;50.506;30.832;2023-04-22T04:40:59;28.90;23.40;17.70
42002;PMS7003;27693;50.506;30.832;2023-04-22T04:42:03;28.90;23.70;17.40
42002;PMS7003;27693;50.506;30.832;2023-04-22T04:43:07;31.80;26.50;19.10
42002;PMS7003;27693;50.506;30.832;2023-04-22T04:44:12;23.60;20.50;18.10
42002;PMS7003;27693;50.506;30.832;2023-04-22T04:45:15;30.00;24.00;17.70
42002;PMS7003;27693;50.506;30.832;2023-04-22T04:46:18;27.40;22.30;15.80
42002;PMS7003;27693;50.506;30.832;2023-04-22T04:47:21;29.70;24.90;16.30
42002;PMS7003;27693;50.506;30.832;2023-04-22T04:48:26;26.40;21.60;15.10
42002;PMS7003;27693;50.506;30.832;2023-04-22T04:49:30;23.90;21.40;18.10
42002;PMS7003;27693;50.506;30.832;2023-04-22T04:50:33;24.70;18.20;14.20
42002;PMS7003;27693;50.506;30.832;2023-04-22T04:51:37;28.30;23.00;18.70
42002;PMS7003;27693;50.506;30.832;2023-04-22T04:52:40;31.40;21.50;16.40
42002;PMS7003;27693;50.506;30.832;2023-04-22T04:53:43;25.30;22.30;16.50
42002;PMS7003;27693;50.506;30.832;2023-04-22T04:54:45;27.90;22.10;16.10
42002;PMS7003;27693;50.506;30.832;2023-04-22T04:55:47;26.50;23.70;18.00
42002;PMS7003;27693;50.506;30.832;2023-04-22T04:56:52;23.90;19.90;14.10
42002;PMS7003;27693;50.506;30.832;2023-04-22T04:57:55;19.30;16.10;12.80
42002;PMS7003;27693;50.506;30.832;2023-04-22T04:58:57;23.10;21.00;14.70
42002;PMS7003;27693;50.506;30.832;2023-04-22T05:00:01;25.30;23.30;16.90
42002;PMS7003;27693;50.506;30.832;2023-04-22T05:01:05;26.40;23.40;18.80
42002;PMS7003;27693;50.506;30.832;2023-04-22T05:02:08;28.30;22.40;17.10
42002;PMS7003;27693;50.506;30.832;2023-04-22T05:03:11;21.60;18.20;13.30
42002;PMS7003;27693;50.506;30.832;2023-04-22T05:04:14;27.10;20.90;16.00
42002;PMS7003;27693;50.506;30.832;2023-04-22T05:05:17;27.60;24.00;18.30
42002;PMS7003;27693;50.506;30.832;2023-04-22T05:06:21;27.40;24.50;18.50
42002;PMS7003;27693;50.506;30.832;2023-04-22T05:07:25;26.60;21.90;16.90
42002;PMS7003;27693;50.506;30.832;2023-04-22T05:08:27;28.40;23.20;18.20
42002;PMS7003;27693;50.506;30.832;2023-04-22T05:09:32;29.10;25.10;18.30
42002;PMS7003;27693;50.506;30.832;2023-04-22T05:10:36;25.40;20.40;16.80
42002;PMS7003;27693;50.506;30.832;2023-04-22T05:11:39;30.90;23.10;17.10
42002;PMS7003;27693;50.506;30.832;2023-04-22T05:12:43;25.40;19.80;15.80
42002;PMS7003;27693;50.506;30.832;2023-04-22T05:13:50;25.60;23.60;18.60
42002;PMS7003;27693;50.506;30.832;2023-04-22T05:14:54;30.50;24.40;16.70
42002;PMS7003;27693;50.506;30.832;2023-04-22T05:15:56;23.40;20.60;15.60
42002;PMS7003;27693;50.506;30.832;2023-04-22T05:17:00;24.50;21.70;16.00
42002;PMS7003;27693;50.506;30.832;2023-04-22T05:18:04;22.50;19.60;15.40
42002;PMS7003;27693;50.506;30.832;2023-04-22T05:19:07;24.70;21.10;14.70
42002;PMS7003;27693;50.506;30.832;2023-04-22T05:20:10;26.00;23.20;17.40
42002;PMS7003;27693;50.506;30.832;2023-04-22T05:21:13;26.20;23.00;16.30
42002;PMS7003;27693;50.506;30.832;2023-04-22T05:22:18;29.80;25.50;17.20
42002;PMS7003;27693;50.506;30.832;2023-04-22T05:23:22;28.73;25.82;18.00
42002;PMS7003;27693;50.506;30.832;2023-04-22T05:24:26;24.70;20.90;15.80
42002;PMS7003;27693;50.506;30.832;2023-04-22T05:25:29;27.10;22.60;17.50
42002;PMS7003;27693;50.506;30.832;2023-04-22T05:26:33;27.70;21.50;16.50
42002;PMS7003;27693;50.506;30.832;2023-04-22T05:27:37;29.80;23.60;17.80
42002;PMS7003;27693;50.506;30.832;2023-04-22T05:28:43;29.50;24.30;19.20
42002;PMS7003;27693;50.506;30.832;2023-04-22T05:29:47;23.70;16.00;11.60
42002;PMS7003;27693;50.506;30.832;2023-04-22T05:30:51;27.80;21.10;14.70
42002;PMS7003;27693;50.506;30.832;2023-04-22T05:31:54;25.30;22.30;16.40
42002;PMS7003;27693;50.506;30.832;2023-04-22T05:32:57;25.70;20.30;15.60
42002;PMS7003;27693;50.506;30.832;2023-04-22T05:34:00;25.20;19.70;14.80
42002;PMS7003;27693;50.506;30.832;2023-04-22T05:35:03;24.00;18.82;12.91
42002;PMS7003;27693;50.506;30.832;2023-04-22T05:36:06;24.20;21.40;17.70
42002;PMS7003;27693;50.506;30.832;2023-04-22T05:37:09;25.30;20.30;14.50
42002;PMS7003;27693;50.506;30.832;2023-04-22T05:38:14;22.10;20.90;16.80
42002;PMS7003;27693;50.506;30.832;2023-04-22T05:39:16;24.80;22.90;17.50
42002;PMS7003;27693;50.506;30.832;2023-04-22T05:40:20;26.80;24.20;17.90
42002;PMS7003;27693;50.506;30.832;2023-04-22T05:41:22;23.90;21.90;16.80
42002;PMS7003;27693;50.506;30.832;2023-04-22T05:42:25;24.55;18.64;16.91
42002;PMS7003;27693;50.506;30.832;2023-04-22T05:43:28;24.30;20.70;17.80
42002;PMS7003;27693;50.506;30.832;2023-04-22T05:44:32;26.10;22.20;16.30
42002;PMS7003;27693;50.506;30.832;2023-04-22T05:45:36;29.30;22.20;17.90
42002;PMS7003;27693;50.506;30.832;2023-04-22T05:46:39;24.00;21.90;16.30
42002;PMS7003;27693;50.506;30.832;2023-04-22T05:47:42;27.91;23.91;18.00
42002;PMS7003;27693;50.506;30.832;2023-04-22T05:48:44;24.30;18.00;13.10
42002;PMS7003;27693;50.506;30.832;2023-04-22T05:49:48;27.90;22.90;17.80